createdAt,value
2018-11-05T00:00:19.618Z,99924.05
2018-11-05T00:02:50.763Z,99924.91
2018-11-05T00:05:19.999Z,99921.61
2018-11-05T00:07:48.976Z,99926.33
2018-11-05T00:10:18.370Z,99916.41
2018-11-05T00:12:47.384Z,99915.57
2018-11-05T00:15:16.372Z,99920.34
2018-11-05T00:17:45.680Z,99920.26
2018-11-05T00:20:14.664Z,99920.56
2018-11-05T00:22:43.634Z,99923.64
2018-11-05T00:25:13.872Z,99915.13
2018-11-05T00:27:43.157Z,99916.14
2018-11-05T00:30:13.313Z,99920.25
2018-11-05T00:32:43.208Z,99918.80
2018-11-05T00:35:12.415Z,99919.89
2018-11-05T00:37:41.432Z,99916.20
2018-11-05T00:40:15.792Z,99918.49
2018-11-05T00:42:45.433Z,99909.42
2018-11-05T00:45:14.954Z,99906.55
2018-11-05T00:47:44.794Z,99908.42
2018-11-05T00:50:15.384Z,99909.31
2018-11-05T00:52:44.333Z,99903.02
2018-11-05T00:55:14.128Z,99904.58
2018-11-05T00:57:43.159Z,99902.06
2018-11-05T01:00:15.490Z,99903.38
2018-11-05T01:02:44.593Z,99894.42
2018-11-05T01:05:16.871Z,99896.60
2018-11-05T01:07:46.472Z,99896.42
2018-11-05T01:10:16.395Z,99890.78
2018-11-05T01:12:45.750Z,99885.52
2018-11-05T01:15:16.025Z,99884.17
2018-11-05T01:17:45.020Z,99889.63
2018-11-05T01:20:15.193Z,99887.67
2018-11-05T01:22:44.189Z,99888.17
2018-11-05T01:25:13.163Z,99879.24
2018-11-05T01:27:42.485Z,99880.00
2018-11-05T01:30:12.974Z,99882.16
2018-11-05T01:32:42.025Z,99878.42
2018-11-05T01:35:12.654Z,99875.51
2018-11-05T01:37:41.641Z,99871.94
2018-11-05T01:40:13.236Z,99877.95
2018-11-05T01:42:42.388Z,99873.71
2018-11-05T01:45:12.611Z,99869.77
2018-11-05T01:47:42.781Z,99869.21
2018-11-05T01:50:13.472Z,99869.77
2018-11-05T01:52:43.052Z,99873.09
2018-11-05T01:55:12.221Z,99870.74
2018-11-05T01:57:41.849Z,99873.47
2018-11-05T02:00:13.302Z,99861.44
2018-11-05T02:02:42.355Z,99861.95
2018-11-05T02:05:11.731Z,99870.00
2018-11-05T02:07:41.741Z,99868.75
2018-11-05T02:10:13.352Z,99870.14
2018-11-05T02:12:42.750Z,99860.94
2018-11-05T02:15:12.328Z,99864.68
2018-11-05T02:17:42.751Z,99868.56
2018-11-05T02:20:12.388Z,99865.97
2018-11-05T02:22:41.396Z,99859.83
2018-11-05T02:25:11.673Z,99852.98
2018-11-05T02:27:41.350Z,99858.95
2018-11-05T02:30:15.027Z,99856.68
2018-11-05T02:32:44.058Z,99852.74
2018-11-05T02:35:13.948Z,99854.50
2018-11-05T02:37:43.846Z,99858.24
2018-11-05T02:40:14.318Z,99857.49
2018-11-05T02:42:43.861Z,99852.16
2018-11-05T02:45:13.903Z,99848.83
2018-11-05T02:47:42.957Z,99843.64
2018-11-05T02:50:12.831Z,99850.60
2018-11-05T02:52:42.873Z,99851.11
2018-11-05T02:55:12.175Z,99849.55
2018-11-05T02:57:41.201Z,99859.30
2018-11-05T03:00:17.383Z,99853.98
2018-11-05T03:02:46.384Z,99851.52
2018-11-05T03:05:16.531Z,99847.09
2018-11-05T03:07:46.649Z,99853.44
2018-11-05T03:10:16.341Z,99849.23
2018-11-05T03:12:46.164Z,99854.78
2018-11-05T03:15:16.389Z,99852.89
2018-11-05T03:17:45.418Z,99845.02
2018-11-05T03:20:16.115Z,99852.27
2018-11-05T03:22:45.757Z,99847.30
2018-11-05T03:25:14.804Z,99847.70
2018-11-05T03:27:43.820Z,99849.44
2018-11-05T03:30:16.774Z,99847.27
2018-11-05T03:32:45.856Z,99853.25
2018-11-05T03:35:15.269Z,99854.09
2018-11-05T03:37:45.688Z,99854.09
2018-11-05T03:40:14.957Z,99851.30
2018-11-05T03:42:44.390Z,99847.59
2018-11-05T03:45:14.606Z,99849.05
2018-11-05T03:47:44.031Z,99843.50
2018-11-05T03:50:16.892Z,99844.84
2018-11-05T03:52:46.710Z,99846.11
2018-11-05T03:55:16.501Z,99841.75
2018-11-05T03:57:45.584Z,99848.17
2018-11-05T04:00:15.858Z,99851.52
2018-11-05T04:02:44.816Z,99856.23
2018-11-05T04:05:14.192Z,99851.30
2018-11-05T04:07:43.215Z,99857.17
2018-11-05T04:10:13.277Z,99855.94
2018-11-05T04:12:42.333Z,99851.23
2018-11-05T04:15:11.571Z,99854.05
2018-11-05T04:17:40.545Z,99859.20
2018-11-05T04:20:11.972Z,99862.11
2018-11-05T04:22:41.330Z,99865.20
2018-11-05T04:25:10.372Z,99863.42
2018-11-05T04:27:39.457Z,99859.52
2018-11-05T04:30:11.916Z,99865.70
2018-11-05T04:32:41.558Z,99872.45
2018-11-05T04:35:11.029Z,99867.12
2018-11-05T04:37:40.035Z,99871.87
2018-11-05T04:40:11.108Z,99877.61
2018-11-05T04:42:40.183Z,99871.66
2018-11-05T04:45:10.929Z,99871.08
2018-11-05T04:47:40.455Z,99870.13
2018-11-05T04:50:10.596Z,99867.62
2018-11-05T04:52:40.264Z,99868.87
2018-11-05T04:55:09.313Z,99868.50
2018-11-05T04:57:38.425Z,99868.27
2018-11-05T05:00:12.895Z,99866.53
2018-11-05T05:02:42.584Z,99862.64
2018-11-05T05:05:12.810Z,99866.63
2018-11-05T05:07:42.296Z,99873.80
2018-11-05T05:10:11.447Z,99877.03
2018-11-05T05:12:41.536Z,99877.91
2018-11-05T05:15:11.469Z,99880.89
2018-11-05T05:17:41.075Z,99891.91
2018-11-05T05:20:12.411Z,99885.37
2018-11-05T05:22:41.535Z,99883.57
2018-11-05T05:25:10.440Z,99887.64
2018-11-05T05:27:40.009Z,99888.56
2018-11-05T05:30:11.263Z,99892.59
2018-11-05T05:32:40.298Z,99897.63
2018-11-05T05:35:09.321Z,99894.47
2018-11-05T05:37:38.374Z,99892.66
2018-11-05T05:40:08.197Z,99896.84
2018-11-05T05:42:37.678Z,99896.23
2018-11-05T05:45:07.718Z,99898.52
2018-11-05T05:47:37.069Z,99907.05
2018-11-05T05:50:08.398Z,99907.56
2018-11-05T05:52:37.441Z,99898.01
2018-11-05T05:55:07.893Z,99884.59
2018-11-05T05:57:36.903Z,99900.00
2018-11-05T06:00:07.432Z,99903.89
2018-11-05T06:02:36.376Z,99900.81
2018-11-05T06:05:06.585Z,99887.83
2018-11-05T06:07:35.664Z,99905.55
2018-11-05T06:10:05.062Z,99904.02
2018-11-05T06:12:34.078Z,99903.88
2018-11-05T06:15:03.081Z,99910.11
2018-11-05T06:17:32.132Z,99909.39
2018-11-05T06:20:01.186Z,99909.51
2018-11-05T06:22:31.937Z,99913.69
2018-11-05T06:25:01.925Z,99908.76
2018-11-05T06:27:31.121Z,99910.91
2018-11-05T06:30:00.946Z,99910.13
2018-11-05T06:32:30.691Z,99913.36
2018-11-05T06:35:00.353Z,99907.41
2018-11-05T06:37:29.678Z,99910.43
2018-11-05T06:39:59.091Z,99906.30
2018-11-05T06:42:29.560Z,99906.67
2018-11-05T06:44:59.742Z,99910.28
2018-11-05T06:47:28.843Z,99906.58
2018-11-05T06:49:58.442Z,99898.63
2018-11-05T06:52:28.431Z,99898.27
2018-11-05T06:54:57.607Z,99902.46
2018-11-05T06:57:27.168Z,99904.47
2018-11-05T06:59:56.617Z,99912.58
2018-11-05T07:02:25.681Z,99912.95
2018-11-05T07:04:54.645Z,99914.81
2018-11-05T07:07:23.713Z,99908.41
2018-11-05T07:09:53.687Z,99912.95
2018-11-05T07:12:22.727Z,99907.89
2018-11-05T07:14:52.269Z,99909.76
2018-11-05T07:17:21.593Z,99912.28
2018-11-05T07:19:50.740Z,99900.31
2018-11-05T07:22:20.879Z,99906.03
2018-11-05T07:24:50.237Z,99904.03
2018-11-05T07:27:20.147Z,99911.08
2018-11-05T07:29:50.122Z,99912.06
2018-11-05T07:32:19.525Z,99910.42
2018-11-05T07:34:48.997Z,99906.54
2018-11-05T07:37:18.718Z,99915.73
2018-11-05T07:39:48.185Z,99921.14
2018-11-05T07:42:17.784Z,99915.38
2018-11-05T07:44:48.066Z,99916.78
2018-11-05T07:47:17.502Z,99925.54
2018-11-05T07:49:47.013Z,99921.99
2018-11-05T07:52:16.821Z,99918.30
2018-11-05T07:54:46.049Z,99922.19
2018-11-05T07:57:16.112Z,99926.45
2018-11-05T07:59:46.091Z,99928.52
2018-11-05T08:02:15.830Z,99922.23
2018-11-05T08:04:45.436Z,99927.31
2018-11-05T08:07:15.777Z,99938.48
2018-11-05T08:09:45.024Z,99932.95
2018-11-05T08:12:14.533Z,99935.84
2018-11-05T08:14:44.598Z,99932.91
2018-11-05T08:17:14.277Z,99931.02
2018-11-05T08:19:43.637Z,99915.39
2018-11-05T08:22:13.452Z,99936.61
2018-11-05T08:24:42.754Z,99935.61
2018-11-05T08:27:12.640Z,99934.42
2018-11-05T08:29:42.601Z,99930.36
2018-11-05T08:32:12.257Z,99934.88
2018-11-05T08:34:42.300Z,99908.58
2018-11-05T08:37:12.564Z,99936.36
2018-11-05T08:39:42.505Z,99941.24
2018-11-05T08:42:11.656Z,99944.19
2018-11-05T08:44:41.793Z,99937.88
2018-11-05T08:47:11.033Z,99941.08
2018-11-05T08:49:40.961Z,99944.23
2018-11-05T08:52:10.972Z,99948.13
2018-11-05T08:54:40.556Z,99947.74
2018-11-05T08:57:09.979Z,99947.84
2018-11-05T08:59:39.938Z,99943.19
2018-11-05T09:02:10.261Z,99943.06
2018-11-05T09:04:39.572Z,99938.11
2018-11-05T09:07:09.283Z,99937.03
2018-11-05T09:09:38.711Z,99934.62
2018-11-05T09:12:08.125Z,99931.16
2018-11-05T09:14:37.253Z,99929.84
2018-11-05T09:17:06.559Z,99926.86
2018-11-05T09:19:35.702Z,99920.37
2018-11-05T09:22:05.378Z,99924.69
2018-11-05T09:24:46.688Z,99913.59
2018-11-05T09:27:21.495Z,99917.73
2018-11-05T09:29:50.637Z,99907.88
2018-11-05T09:32:20.497Z,99905.87
2018-11-05T09:34:51.117Z,99898.00
2018-11-05T09:37:20.350Z,99900.32
2018-11-05T09:39:49.509Z,99897.17
2018-11-05T11:32:52.947Z,99744.12
2018-11-05T11:35:21.988Z,99738.81
2018-11-05T11:37:51.177Z,99745.82
2018-11-05T11:40:22.024Z,99732.86
2018-11-05T11:42:51.058Z,99731.91
2018-11-05T11:45:21.153Z,99721.44
2018-11-05T11:47:50.537Z,99721.31
2018-11-05T11:50:19.828Z,99720.91
2018-11-05T11:52:49.596Z,99720.77
2018-11-05T11:55:19.910Z,99720.91
2018-11-05T11:57:48.976Z,99719.16
2018-11-05T12:00:22.427Z,99716.22
2018-11-05T12:02:51.801Z,99707.55
2018-11-05T12:05:21.029Z,99706.71
2018-11-05T12:07:50.331Z,99698.17
2018-11-05T12:10:21.235Z,99698.98
2018-11-05T12:12:50.261Z,99692.50
2018-11-05T12:15:20.492Z,99696.08
2018-11-05T12:17:50.456Z,99691.05
2018-11-05T12:20:20.677Z,99689.91
2018-11-05T12:22:50.519Z,99687.06
2018-11-05T12:25:19.642Z,99683.19
2018-11-05T12:27:48.637Z,99681.28
2018-11-05T12:30:20.869Z,99681.88
2018-11-05T12:32:50.697Z,99683.31
2018-11-05T12:35:21.151Z,99673.87
2018-11-05T12:37:51.172Z,99678.91
2018-11-05T12:40:21.317Z,99675.36
2018-11-05T12:42:51.337Z,99664.44
2018-11-05T12:45:20.505Z,99663.27
2018-11-05T12:47:49.621Z,99661.73
2018-11-05T12:50:24.310Z,99658.09
2018-11-05T12:52:54.666Z,99651.83
2018-11-05T12:55:23.917Z,99660.09
2018-11-05T12:57:52.958Z,99656.86
2018-11-05T13:00:24.241Z,99650.31
2018-11-05T13:02:54.083Z,99646.41
2018-11-05T13:05:23.881Z,99638.80
2018-11-05T13:07:53.018Z,99639.28
2018-11-05T13:10:22.474Z,99640.94
2018-11-05T13:12:51.551Z,99637.13
2018-11-05T13:15:20.729Z,99636.06
2018-11-05T13:17:49.790Z,99635.39
2018-11-05T13:20:20.339Z,99636.30
2018-11-05T13:22:59.032Z,99630.30
2018-11-05T13:25:30.623Z,99627.91
2018-11-05T13:28:00.020Z,99626.28
2018-11-05T13:30:29.054Z,99625.30
2018-11-05T13:32:58.100Z,99632.27
2018-11-05T13:35:27.366Z,99626.66
2018-11-05T13:37:56.784Z,99626.76
2018-11-05T13:40:25.540Z,99623.27
2018-11-05T13:42:55.004Z,99630.97
2018-11-05T13:45:24.162Z,99630.97
2018-11-05T13:47:54.498Z,99618.64
2018-11-05T13:50:22.657Z,99618.22
2018-11-05T13:52:51.269Z,99616.56
2018-11-05T13:55:20.316Z,99614.39
2018-11-05T13:57:50.074Z,99619.30
2018-11-05T14:00:20.376Z,99621.20
2018-11-05T14:02:49.934Z,99625.41
2018-11-05T14:05:19.431Z,99622.57
2018-11-05T14:07:48.542Z,99620.78
2018-11-05T14:10:19.275Z,99621.72
2018-11-05T14:12:49.266Z,99615.71
2018-11-05T14:15:18.295Z,99616.42
2018-11-05T14:17:47.484Z,99620.83
2018-11-05T14:20:17.852Z,99624.05
2018-11-05T14:22:47.030Z,99621.35
2018-11-05T14:25:17.257Z,99623.72
2018-11-05T14:27:48.131Z,99622.93
2018-11-05T14:30:17.187Z,99619.65
2018-11-05T14:32:49.962Z,99618.11
2018-11-05T14:35:19.063Z,99620.73
2018-11-05T14:37:48.114Z,99623.11
2018-11-05T14:40:18.342Z,99624.30
2018-11-05T14:42:47.448Z,99625.16
2018-11-05T14:45:17.985Z,99630.53
2018-11-05T14:47:47.591Z,99636.69
2018-11-05T14:50:18.451Z,99634.11
2018-11-05T14:52:47.469Z,99635.12
2018-11-05T14:55:18.932Z,99639.52
2018-11-05T14:57:49.331Z,99636.11
2018-11-05T15:00:20.436Z,99643.52
2018-11-05T15:02:50.118Z,99642.75
2018-11-05T15:05:19.184Z,99645.33
2018-11-05T15:07:49.325Z,99644.23
2018-11-05T15:10:20.310Z,99642.69
2018-11-05T15:12:51.972Z,99649.97
2018-11-05T15:15:22.193Z,99647.94
2018-11-05T15:17:51.564Z,99653.29
2018-11-05T15:20:22.308Z,99653.80
2018-11-05T15:22:51.280Z,99663.58
2018-11-05T15:25:20.999Z,99659.88
2018-11-05T15:27:51.258Z,99660.63
2018-11-05T15:30:25.505Z,99667.48
2018-11-05T15:32:57.082Z,99670.36
2018-11-05T15:35:26.086Z,99671.27
2018-11-05T15:37:55.547Z,99676.34
2018-11-05T15:40:24.997Z,99678.86
2018-11-05T15:42:54.242Z,99677.42
2018-11-05T15:45:25.099Z,99682.59
2018-11-05T15:47:54.241Z,99691.53
2018-11-05T15:50:23.454Z,99695.59
2018-11-05T15:52:52.981Z,99697.87
2018-11-05T15:55:22.434Z,99697.08
2018-11-05T15:57:51.407Z,99688.52
2018-11-05T16:00:26.861Z,99697.13
2018-11-05T16:02:58.462Z,99700.66
2018-11-05T16:05:28.042Z,99699.30
2018-11-05T16:07:57.286Z,99699.80
2018-11-05T16:10:27.280Z,99706.92
2018-11-05T16:12:56.659Z,99710.30
2018-11-05T16:15:25.890Z,99716.02
2018-11-05T16:17:55.095Z,99708.86
2018-11-05T16:20:24.408Z,99714.62
2018-11-05T16:22:54.003Z,99714.84
2018-11-05T16:25:23.471Z,99722.02
2018-11-05T16:27:52.554Z,99720.52
2018-11-05T16:30:22.272Z,99721.77
2018-11-05T16:32:52.351Z,99731.09
2018-11-05T16:35:22.187Z,99730.61
2018-11-05T16:37:51.255Z,99736.70
2018-11-05T16:40:21.145Z,99731.77
2018-11-05T16:42:52.365Z,99726.61
2018-11-05T16:45:21.659Z,99736.50
2018-11-05T16:47:51.812Z,99737.59
2018-11-05T16:50:23.490Z,99737.09
2018-11-05T16:52:52.570Z,99736.95
2018-11-05T16:55:21.579Z,99734.69
2018-11-05T16:57:51.198Z,99726.84
2018-11-05T17:00:20.162Z,99738.56
2018-11-05T17:02:50.423Z,99736.38
2018-11-05T17:05:21.450Z,99739.91
2018-11-05T17:07:50.619Z,99739.02
2018-11-05T17:10:19.637Z,99739.25
2018-11-05T17:12:49.927Z,99744.75
2018-11-05T17:15:19.450Z,99749.52
2018-11-05T17:17:48.872Z,99749.50
2018-11-05T17:20:19.522Z,99744.33
2018-11-05T17:22:49.066Z,99747.48
2018-11-05T17:25:19.209Z,99745.31
2018-11-05T17:27:49.282Z,99750.11
2018-11-05T17:30:19.859Z,99746.53
2018-11-05T17:32:49.001Z,99752.91
2018-11-05T17:35:18.795Z,99757.16
2018-11-05T17:37:49.725Z,99753.06
2018-11-05T17:40:21.290Z,99757.78
2018-11-05T17:42:50.905Z,99763.76
2018-11-05T17:45:20.835Z,99760.11
2018-11-05T17:47:50.778Z,99762.13
2018-11-05T17:50:21.236Z,99765.66
2018-11-05T17:52:50.254Z,99760.59
2018-11-05T17:55:20.879Z,99763.91
2018-11-05T17:57:50.790Z,99764.73
2018-11-05T18:00:21.440Z,99767.91
2018-11-05T18:02:52.143Z,99763.53
2018-11-05T18:05:22.533Z,99762.36
2018-11-05T18:07:51.982Z,99765.86
2018-11-05T18:10:21.246Z,99765.30
2018-11-05T18:12:51.561Z,99760.27
2018-11-05T18:15:20.811Z,99760.95
2018-11-05T18:17:50.353Z,99768.03
2018-11-05T18:20:20.316Z,99776.12
2018-11-05T18:22:49.703Z,99777.84
2018-11-05T18:25:20.914Z,99776.19
2018-11-05T18:27:50.407Z,99771.79
2018-11-05T18:30:20.460Z,99771.80
2018-11-05T18:32:50.343Z,99780.22
2018-11-05T18:35:20.657Z,99779.56
2018-11-05T18:37:51.256Z,99776.23
2018-11-05T18:40:21.730Z,99783.80
2018-11-05T18:42:51.090Z,99783.80
2018-11-05T18:45:20.598Z,99785.98
2018-11-05T18:47:50.562Z,99781.78
2018-11-05T18:50:19.943Z,99780.89
2018-11-05T18:52:48.989Z,99784.42
2018-11-05T18:55:20.635Z,99789.61
2018-11-05T18:57:51.665Z,99787.20
2018-11-05T19:00:24.168Z,99778.09
2018-11-05T19:02:54.267Z,99785.69
2018-11-05T19:05:24.591Z,99787.33
2018-11-05T19:07:53.969Z,99784.48
2018-11-05T19:10:23.421Z,99791.95
2018-11-05T19:12:54.392Z,99791.81
2018-11-05T19:15:23.908Z,99794.81
2018-11-05T19:17:53.590Z,99799.44
2018-11-05T19:20:23.880Z,99794.87
2018-11-05T19:22:53.658Z,99794.95
2018-11-05T19:25:22.793Z,99788.98
2018-11-05T19:27:52.977Z,99788.14
2018-11-05T19:30:25.450Z,99793.84
2018-11-05T19:32:55.371Z,99796.09
2018-11-05T19:35:26.862Z,99792.20
2018-11-05T19:37:56.367Z,99794.69
2018-11-05T19:40:26.058Z,99792.03
2018-11-05T19:42:55.300Z,99795.16
2018-11-05T19:45:25.482Z,99797.44
2018-11-05T19:47:54.807Z,99800.24
2018-11-05T19:50:26.035Z,99802.70
2018-11-05T19:52:56.127Z,99808.53
2018-11-05T19:55:25.882Z,99806.89
2018-11-05T19:57:55.262Z,99807.56
2018-11-05T20:03:38.623Z,99815.97
2018-11-05T20:06:29.657Z,99809.50
2018-11-05T20:08:59.534Z,99810.51
2018-11-05T20:11:29.984Z,99811.16
2018-11-05T20:13:59.846Z,99821.97
2018-11-05T20:16:29.845Z,99820.75
2018-11-05T20:18:59.615Z,99817.45
2018-11-05T20:21:29.085Z,99814.47
2018-11-05T20:23:58.653Z,99812.86
2018-11-05T20:26:28.070Z,99809.16
2018-11-05T20:28:57.912Z,99808.47
2018-11-05T20:31:27.693Z,99804.26
2018-11-05T20:33:58.035Z,99804.66
2018-11-05T20:36:27.568Z,99798.61
2018-11-05T20:38:59.031Z,99803.83
2018-11-05T20:41:28.838Z,99803.57
2018-11-05T20:43:58.559Z,99799.70
2018-11-05T20:46:28.364Z,99793.23
2018-11-05T20:48:58.081Z,99797.25
2018-11-05T20:51:27.936Z,99796.21
2018-11-05T20:53:58.286Z,99784.86
2018-11-05T20:56:28.617Z,99793.78
2018-11-05T20:58:58.618Z,99793.45
2018-11-05T21:01:28.190Z,99792.61
2018-11-05T21:03:58.293Z,99802.52
2018-11-05T21:06:28.137Z,99798.86
2018-11-05T21:08:58.780Z,99798.30
2018-11-05T21:11:29.171Z,99802.34
2018-11-05T21:13:58.902Z,99809.50
2018-11-05T21:16:28.951Z,99809.98
2018-11-05T21:18:58.489Z,99807.60
2018-11-05T21:21:28.176Z,99813.33
2018-11-05T21:23:58.202Z,99813.77
2018-11-05T21:26:27.930Z,99810.61
2018-11-05T21:28:57.662Z,99815.73
2018-11-05T21:31:27.134Z,99817.20
2018-11-05T21:36:26.605Z,99823.42
2018-11-05T21:38:55.956Z,99819.81
2018-11-05T21:41:25.472Z,99825.04
2018-11-05T21:43:55.379Z,99822.53
2018-11-05T21:46:25.599Z,99822.57
2018-11-05T21:48:54.841Z,99821.45
2018-11-05T21:51:25.301Z,99830.28
2018-11-05T21:53:55.440Z,99832.50
2018-11-05T21:56:25.876Z,99825.67
2018-11-05T21:58:55.957Z,99826.00
2018-11-05T22:01:27.301Z,99824.91
2018-11-05T22:03:57.338Z,99821.35
2018-11-05T22:06:27.367Z,99830.34
2018-11-05T22:08:57.136Z,99817.33
2018-11-05T22:11:27.370Z,99820.99
2018-11-05T22:13:57.534Z,99817.84
2018-11-05T22:16:27.592Z,99825.09
2018-11-05T22:18:56.974Z,99818.70
2018-11-05T22:21:26.953Z,99819.57
2018-11-05T22:23:56.642Z,99820.44
2018-11-05T22:26:26.259Z,99827.45
2018-11-05T22:28:56.201Z,99824.77
2018-11-05T22:31:26.174Z,99826.40
2018-11-05T22:33:55.921Z,99830.83
2018-11-05T22:36:27.141Z,99824.50
2018-11-05T22:38:56.854Z,99828.56
2018-11-05T22:41:27.388Z,99824.05
2018-11-05T22:43:57.341Z,99826.11
2018-11-05T22:46:27.051Z,99822.77
2018-11-05T22:48:57.235Z,99822.27
2018-11-05T22:51:26.782Z,99817.96
2018-11-05T22:53:56.535Z,99822.16
2018-11-05T22:56:27.405Z,99825.72
2018-11-05T22:58:57.072Z,99830.26
2018-11-05T23:01:32.153Z,99823.16
2018-11-05T23:04:03.884Z,99829.34
2018-11-05T23:06:35.309Z,99821.92
2018-11-05T23:09:05.615Z,99823.32
2018-11-05T23:11:35.357Z,99821.09
2018-11-05T23:14:05.200Z,99814.70
2018-11-05T23:16:34.877Z,99810.81
2018-11-05T23:19:04.901Z,99811.20
2018-11-05T23:21:35.306Z,99806.32
2018-11-05T23:24:05.173Z,99810.36
2018-11-05T23:26:35.314Z,99808.84
2018-11-05T23:29:05.369Z,99809.02
2018-11-05T23:31:35.133Z,99815.73
2018-11-05T23:34:04.949Z,99813.22
2018-11-05T23:36:35.128Z,99817.05
2018-11-05T23:39:05.276Z,99819.66
2018-11-05T23:41:34.970Z,99817.45
2018-11-05T23:44:04.893Z,99815.09
2018-11-05T23:46:34.351Z,99818.11
2018-11-05T23:49:03.781Z,99816.77
2018-11-05T23:51:33.570Z,99815.42
2018-11-05T23:54:03.024Z,99822.08
2018-11-05T23:56:32.564Z,99818.16
2018-11-05T23:59:02.549Z,99792.11
